createdAt,value
2023-02-28T00:04:10.440Z,1.22
2023-02-28T00:09:12.337Z,1.27
2023-02-28T00:14:14.174Z,1.32
2023-02-28T00:19:15.967Z,1.34
2023-02-28T00:24:17.847Z,1.35
2023-02-28T00:29:19.687Z,1.34
2023-02-28T00:34:21.733Z,1.31
2023-02-28T00:39:23.967Z,1.28
2023-02-28T00:44:25.779Z,1.28
2023-02-28T00:49:29.504Z,1.29
2023-02-28T00:54:31.374Z,1.28
2023-02-28T00:59:33.232Z,1.23
2023-02-28T01:04:36.532Z,1.18
2023-02-28T01:09:38.424Z,1.12
2023-02-28T01:14:40.396Z,1.05
2023-02-28T01:19:42.247Z,1.01
2023-02-28T01:24:47.484Z,0.95
2023-02-28T01:29:52.247Z,0.90
2023-02-28T01:34:54.448Z,0.85
2023-02-28T01:39:58.820Z,0.85
2023-02-28T01:45:03.187Z,0.84
2023-02-28T01:50:13.590Z,0.80
2023-02-28T01:55:18.025Z,0.75
2023-02-28T02:00:24.851Z,0.73
2023-02-28T02:05:32.178Z,0.71
2023-02-28T02:10:37.752Z,0.70
2023-02-28T02:16:03.839Z,0.70
2023-02-28T02:21:16.468Z,0.70
2023-02-28T02:26:24.566Z,0.73
2023-02-28T02:31:44.808Z,0.75
2023-02-28T02:36:54.525Z,0.75
2023-02-28T02:41:59.541Z,0.74
2023-02-28T02:47:15.826Z,0.74
2023-02-28T02:52:22.592Z,0.76
2023-02-28T02:57:31.508Z,0.75
2023-02-28T03:02:35.813Z,0.74
2023-02-28T03:07:37.616Z,0.70
2023-02-28T03:12:55.290Z,0.67
2023-02-28T03:18:10.871Z,0.64
2023-02-28T03:23:29.740Z,0.59
2023-02-28T03:29:04.713Z,0.57
2023-02-28T03:34:15.470Z,0.53
2023-02-28T03:39:26.516Z,0.50
2023-02-28T03:44:40.212Z,0.47
2023-02-28T03:49:50.691Z,0.44
2023-02-28T03:54:57.537Z,0.41
2023-02-28T04:00:22.697Z,0.42
2023-02-28T04:05:25.182Z,0.42
2023-02-28T04:10:26.970Z,0.44
2023-02-28T04:15:29.429Z,0.46
2023-02-28T04:20:31.217Z,0.45
2023-02-28T04:25:32.951Z,0.45
2023-02-28T04:30:34.796Z,0.45
2023-02-28T04:35:36.684Z,0.40
2023-02-28T04:40:38.573Z,0.36
2023-02-28T04:45:40.496Z,0.31
2023-02-28T04:50:42.547Z,0.26
2023-02-28T04:55:44.941Z,0.19
2023-02-28T05:00:46.809Z,0.12
2023-02-28T05:05:49.482Z,0.07
2023-02-28T05:10:51.237Z,0.02
2023-02-28T05:15:53.094Z,-0.03
2023-02-28T05:20:54.875Z,-0.08
2023-02-28T05:25:57.293Z,-0.13
2023-02-28T05:30:59.136Z,-0.17
2023-02-28T05:36:01.007Z,-0.21
2023-02-28T05:41:09.710Z,-0.22
2023-02-28T05:46:13.532Z,-0.24
2023-02-28T05:51:16.273Z,-0.28
2023-02-28T05:56:18.233Z,-0.31
2023-02-28T06:01:40.677Z,-0.34
2023-02-28T06:06:42.591Z,-0.35
2023-02-28T06:11:44.603Z,-0.37
2023-02-28T06:16:47.309Z,-0.34
2023-02-28T06:21:53.412Z,-0.32
2023-02-28T06:26:55.160Z,-0.29
2023-02-28T06:31:57.019Z,-0.27
2023-02-28T06:37:03.256Z,-0.21
2023-02-28T06:42:05.256Z,-0.14
2023-02-28T06:47:07.587Z,-0.07
2023-02-28T06:52:10.952Z,0.01
2023-02-28T06:57:12.782Z,0.10
2023-02-28T07:02:14.715Z,0.17
2023-02-28T07:07:16.681Z,0.26
2023-02-28T07:12:19.053Z,0.33
2023-02-28T07:17:20.881Z,0.31
2023-02-28T07:22:23.041Z,0.37
2023-02-28T07:27:26.659Z,0.47
2023-02-28T07:32:29.328Z,0.63
2023-02-28T07:37:32.807Z,0.67
2023-02-28T07:42:35.202Z,0.67
2023-02-28T07:47:40.076Z,0.65
2023-02-28T07:52:42.650Z,0.69
2023-02-28T07:57:44.617Z,0.71
2023-02-28T08:02:46.667Z,0.77
2023-02-28T08:07:52.581Z,0.90
2023-02-28T08:12:54.427Z,1.01
2023-02-28T08:17:57.340Z,1.11
2023-02-28T08:22:59.082Z,1.22
2023-02-28T08:28:00.935Z,1.34
2023-02-28T08:33:03.032Z,1.42
2023-02-28T08:38:04.904Z,1.34
2023-02-28T08:43:06.768Z,1.29
2023-02-28T08:48:08.808Z,1.22
2023-02-28T08:53:10.709Z,1.32
2023-02-28T08:58:12.563Z,1.48
2023-02-28T09:03:14.426Z,1.61
2023-02-28T09:08:16.171Z,1.67
2023-02-28T09:13:18.456Z,1.75
2023-02-28T09:18:20.924Z,1.83
2023-02-28T09:23:23.133Z,1.91
2023-02-28T09:28:25.611Z,1.97
2023-02-28T09:33:27.897Z,1.98
2023-02-28T09:38:29.760Z,1.99
2023-02-28T09:43:39.959Z,2.06
2023-02-28T09:48:47.152Z,2.08
2023-02-28T09:53:53.401Z,2.16
2023-02-28T09:59:11.199Z,2.24
2023-02-28T10:04:22.081Z,2.34
2023-02-28T10:09:31.587Z,2.39
2023-02-28T10:14:35.582Z,2.53
2023-02-28T10:19:40.372Z,2.68
2023-02-28T10:24:48.204Z,2.81
2023-02-28T10:29:51.767Z,2.95
2023-02-28T10:35:22.729Z,2.77
2023-02-28T10:40:24.599Z,2.54
2023-02-28T10:45:29.351Z,2.35
2023-02-28T10:50:45.516Z,2.21
2023-02-28T10:56:02.138Z,2.23
2023-02-28T11:01:04.112Z,2.37
2023-02-28T11:06:17.163Z,2.50
2023-02-28T11:11:20.172Z,2.71
2023-02-28T11:16:23.424Z,2.83
2023-02-28T11:21:34.767Z,2.98
2023-02-28T11:26:43.523Z,2.99
2023-02-28T11:31:58.934Z,2.83
2023-02-28T11:37:05.974Z,2.73
2023-02-28T11:42:42.813Z,2.75
2023-02-28T11:47:44.623Z,2.79
2023-02-28T11:53:11.720Z,2.81
2023-02-28T11:58:35.132Z,2.87
2023-02-28T12:03:50.107Z,2.90
2023-02-28T12:09:28.750Z,2.91
2023-02-28T12:14:45.743Z,2.86
2023-02-28T12:20:13.868Z,2.83
2023-02-28T12:25:42.017Z,2.88
2023-02-28T12:31:24.649Z,2.92
2023-02-28T12:36:28.441Z,2.86
2023-02-28T12:41:56.625Z,2.83
2023-02-28T12:47:05.896Z,2.85
2023-02-28T12:52:12.094Z,2.92
2023-02-28T12:57:37.496Z,2.97
2023-02-28T13:02:42.316Z,2.91
2023-02-28T13:08:05.622Z,2.87
2023-02-28T13:13:07.924Z,2.86
2023-02-28T13:18:40.675Z,2.83
2023-02-28T13:24:00.263Z,2.76
2023-02-28T13:29:25.610Z,2.79
2023-02-28T13:34:28.000Z,2.79
2023-02-28T13:39:36.378Z,2.78
2023-02-28T13:45:07.325Z,2.78
2023-02-28T13:50:27.149Z,2.84
2023-02-28T13:55:33.627Z,2.86
2023-02-28T14:01:05.837Z,2.81
2023-02-28T14:06:33.641Z,2.75
2023-02-28T14:11:39.315Z,2.77
2023-02-28T14:16:45.800Z,2.76
2023-02-28T14:22:05.253Z,2.76
2023-02-28T14:27:12.672Z,2.77
2023-02-28T14:32:36.365Z,2.79
2023-02-28T14:37:42.775Z,2.79
2023-02-28T14:42:56.847Z,2.79
2023-02-28T14:48:03.726Z,2.79
2023-02-28T14:53:17.049Z,2.73
2023-02-28T14:58:27.173Z,2.73
2023-02-28T15:03:32.239Z,2.72
2023-02-28T15:08:37.372Z,2.68
2023-02-28T15:13:42.518Z,2.66
2023-02-28T15:18:53.801Z,2.57
2023-02-28T15:24:06.151Z,2.49
2023-02-28T15:29:14.929Z,2.44
2023-02-28T15:34:36.993Z,2.40
2023-02-28T15:39:45.601Z,2.36
2023-02-28T15:44:47.917Z,2.30
2023-02-28T15:49:56.560Z,2.25
2023-02-28T15:55:13.812Z,2.22
2023-02-28T16:00:20.284Z,2.18
2023-02-28T16:05:33.122Z,2.18
2023-02-28T16:10:35.340Z,2.15
2023-02-28T16:15:43.427Z,2.12
2023-02-28T16:20:45.847Z,2.10
2023-02-28T16:25:47.792Z,2.07
2023-02-28T16:30:53.158Z,2.08
2023-02-28T16:35:55.118Z,2.08
2023-02-28T16:41:00.671Z,2.08
2023-02-28T16:46:04.770Z,2.07
2023-02-28T16:51:06.635Z,2.01
2023-02-28T16:56:17.372Z,1.95
2023-02-28T17:01:23.020Z,1.88
2023-02-28T17:06:29.129Z,1.83
2023-02-28T17:11:31.849Z,1.78
2023-02-28T17:16:37.227Z,1.75
2023-02-28T17:21:40.735Z,1.69
2023-02-28T17:26:43.926Z,1.66
2023-02-28T17:31:46.373Z,1.61
2023-02-28T17:36:50.619Z,1.59
2023-02-28T17:41:53.412Z,1.55
2023-02-28T17:46:57.013Z,1.53
2023-02-28T17:51:58.921Z,1.51
2023-02-28T17:57:01.186Z,1.49
2023-02-28T18:02:05.095Z,1.47
2023-02-28T18:07:10.310Z,1.44
2023-02-28T18:12:12.349Z,1.41
2023-02-28T18:17:14.398Z,1.39
2023-02-28T18:22:16.872Z,1.37
2023-02-28T18:27:18.894Z,1.33
2023-02-28T18:32:21.195Z,1.29
2023-02-28T18:37:23.186Z,1.27
2023-02-28T18:42:25.601Z,1.25
2023-02-28T18:47:27.673Z,1.21
2023-02-28T18:52:29.646Z,1.19
2023-02-28T18:57:31.506Z,1.19
2023-02-28T19:02:33.452Z,1.17
2023-02-28T19:07:36.219Z,1.14
2023-02-28T19:12:39.466Z,1.09
2023-02-28T19:17:41.790Z,1.06
2023-02-28T19:22:44.638Z,1.01
2023-02-28T19:27:46.621Z,0.97
2023-02-28T19:32:49.196Z,0.95
2023-02-28T19:37:52.891Z,0.93
2023-02-28T19:42:54.723Z,0.93
2023-02-28T19:47:56.717Z,0.91
2023-02-28T19:53:00.431Z,0.89
2023-02-28T19:58:02.544Z,0.88
2023-02-28T20:03:04.438Z,0.86
2023-02-28T20:08:07.620Z,0.83
2023-02-28T20:13:09.769Z,0.83
2023-02-28T20:18:11.961Z,0.84
2023-02-28T20:23:13.837Z,0.84
2023-02-28T20:28:15.694Z,0.84
2023-02-28T20:33:19.103Z,0.84
2023-02-28T20:38:21.117Z,0.84
2023-02-28T20:43:23.815Z,0.81
2023-02-28T20:48:25.991Z,0.78
2023-02-28T20:53:28.628Z,0.75
2023-02-28T20:58:33.614Z,0.75
2023-02-28T21:03:36.430Z,0.71
2023-02-28T21:08:39.502Z,0.68
2023-02-28T21:13:43.149Z,0.64
2023-02-28T21:18:46.221Z,0.60
2023-02-28T21:23:50.565Z,0.57
2023-02-28T21:28:55.401Z,0.54
2023-02-28T21:33:58.820Z,0.50
2023-02-28T21:39:17.271Z,0.48
2023-02-28T21:44:19.585Z,0.45
2023-02-28T21:49:24.518Z,0.40
2023-02-28T21:54:26.560Z,0.38
2023-02-28T21:59:28.435Z,0.36
2023-02-28T22:04:30.322Z,0.35
2023-02-28T22:09:32.519Z,0.32
2023-02-28T22:14:34.350Z,0.29
2023-02-28T22:19:36.867Z,0.27
2023-02-28T22:24:38.714Z,0.21
2023-02-28T22:29:40.538Z,0.18
2023-02-28T22:34:42.452Z,0.17
2023-02-28T22:39:45.766Z,0.13
2023-02-28T22:44:51.061Z,0.10
2023-02-28T22:49:52.809Z,0.08
2023-02-28T22:54:54.525Z,0.04
2023-02-28T22:59:56.430Z,0.00
2023-02-28T23:04:58.187Z,-0.02
2023-02-28T23:09:59.984Z,-0.04
2023-02-28T23:15:02.035Z,-0.04
2023-02-28T23:20:04.016Z,-0.05
2023-02-28T23:25:06.505Z,-0.06
2023-02-28T23:30:10.463Z,-0.10
2023-02-28T23:35:12.483Z,-0.14
2023-02-28T23:40:14.971Z,-0.17
2023-02-28T23:45:18.453Z,-0.19
2023-02-28T23:50:20.311Z,-0.22
2023-02-28T23:55:22.187Z,-0.25
